sensor_id;sensor_type;location;lat;lon;timestamp;P1;durP1;ratioP1;P2;durP2;ratioP2
79137;SDS011;68544;45.566;10.238;2023-05-07T00:00:35;12.32;;;11.20;;
79137;SDS011;68544;45.566;10.238;2023-05-07T00:03:00;13.75;;;10.95;;
79137;SDS011;68544;45.566;10.238;2023-05-07T00:05:26;11.52;;;10.48;;
79137;SDS011;68544;45.566;10.238;2023-05-07T00:07:51;12.43;;;11.13;;
79137;SDS011;68544;45.566;10.238;2023-05-07T00:10:20;11.45;;;10.30;;
79137;SDS011;68544;45.566;10.238;2023-05-07T00:12:45;12.20;;;11.00;;
79137;SDS011;68544;45.566;10.238;2023-05-07T00:15:10;12.07;;;10.97;;
79137;SDS011;68544;45.566;10.238;2023-05-07T00:17:36;13.43;;;10.83;;
79137;SDS011;68544;45.566;10.238;2023-05-07T00:20:02;12.18;;;10.98;;
79137;SDS011;68544;45.566;10.238;2023-05-07T00:22:29;12.43;;;11.00;;
79137;SDS011;68544;45.566;10.238;2023-05-07T00:27:21;12.85;;;11.55;;
79137;SDS011;68544;45.566;10.238;2023-05-07T00:29:47;12.73;;;10.52;;
79137;SDS011;68544;45.566;10.238;2023-05-07T00:32:12;12.23;;;11.00;;
79137;SDS011;68544;45.566;10.238;2023-05-07T00:34:37;12.35;;;11.15;;
79137;SDS011;68544;45.566;10.238;2023-05-07T00:37:04;12.55;;;11.25;;
79137;SDS011;68544;45.566;10.238;2023-05-07T00:39:30;12.52;;;11.38;;
79137;SDS011;68544;45.566;10.238;2023-05-07T00:41:55;12.30;;;10.93;;
79137;SDS011;68544;45.566;10.238;2023-05-07T00:44:20;12.57;;;11.48;;
79137;SDS011;68544;45.566;10.238;2023-05-07T00:46:45;12.17;;;11.07;;
79137;SDS011;68544;45.566;10.238;2023-05-07T00:49:14;12.98;;;11.38;;
79137;SDS011;68544;45.566;10.238;2023-05-07T00:51:40;12.70;;;11.60;;
79137;SDS011;68544;45.566;10.238;2023-05-07T00:54:05;13.13;;;12.02;;
79137;SDS011;68544;45.566;10.238;2023-05-07T00:56:31;13.43;;;12.10;;
79137;SDS011;68544;45.566;10.238;2023-05-07T00:58:57;14.48;;;12.50;;
79137;SDS011;68544;45.566;10.238;2023-05-07T01:01:22;12.63;;;11.50;;
79137;SDS011;68544;45.566;10.238;2023-05-07T01:03:47;12.30;;;11.10;;
79137;SDS011;68544;45.566;10.238;2023-05-07T01:06:13;13.47;;;12.33;;
79137;SDS011;68544;45.566;10.238;2023-05-07T01:08:41;13.88;;;12.48;;
79137;SDS011;68544;45.566;10.238;2023-05-07T01:11:07;12.98;;;11.75;;
79137;SDS011;68544;45.566;10.238;2023-05-07T01:13:33;14.88;;;13.32;;
79137;SDS011;68544;45.566;10.238;2023-05-07T01:16:00;13.73;;;12.43;;
79137;SDS011;68544;45.566;10.238;2023-05-07T01:18:25;13.13;;;11.90;;
79137;SDS011;68544;45.566;10.238;2023-05-07T01:23:16;13.15;;;11.90;;
79137;SDS011;68544;45.566;10.238;2023-05-07T01:25:43;14.55;;;13.10;;
79137;SDS011;68544;45.566;10.238;2023-05-07T01:28:16;13.77;;;12.32;;
79137;SDS011;68544;45.566;10.238;2023-05-07T01:30:41;12.63;;;11.50;;
79137;SDS011;68544;45.566;10.238;2023-05-07T01:33:11;12.90;;;11.63;;
79137;SDS011;68544;45.566;10.238;2023-05-07T01:35:42;13.40;;;11.88;;
79137;SDS011;68544;45.566;10.238;2023-05-07T01:38:10;13.68;;;12.15;;
79137;SDS011;68544;45.566;10.238;2023-05-07T01:40:36;13.15;;;11.93;;
79137;SDS011;68544;45.566;10.238;2023-05-07T01:43:02;13.13;;;11.82;;
79137;SDS011;68544;45.566;10.238;2023-05-07T01:45:28;12.70;;;11.52;;
79137;SDS011;68544;45.566;10.238;2023-05-07T01:47:55;13.18;;;11.75;;
79137;SDS011;68544;45.566;10.238;2023-05-07T01:50:22;12.90;;;11.70;;
79137;SDS011;68544;45.566;10.238;2023-05-07T01:52:49;12.77;;;11.68;;
79137;SDS011;68544;45.566;10.238;2023-05-07T01:55:15;12.85;;;11.63;;
79137;SDS011;68544;45.566;10.238;2023-05-07T01:57:41;12.30;;;11.20;;
79137;SDS011;68544;45.566;10.238;2023-05-07T02:00:06;12.93;;;11.73;;
79137;SDS011;68544;45.566;10.238;2023-05-07T02:02:33;14.00;;;12.60;;
79137;SDS011;68544;45.566;10.238;2023-05-07T02:04:59;14.30;;;13.00;;
79137;SDS011;68544;45.566;10.238;2023-05-07T02:07:25;13.70;;;12.32;;
79137;SDS011;68544;45.566;10.238;2023-05-07T02:09:51;14.23;;;12.73;;
79137;SDS011;68544;45.566;10.238;2023-05-07T02:12:16;13.82;;;12.55;;
79137;SDS011;68544;45.566;10.238;2023-05-07T02:14:42;14.13;;;12.73;;
79137;SDS011;68544;45.566;10.238;2023-05-07T02:17:07;16.43;;;13.30;;
79137;SDS011;68544;45.566;10.238;2023-05-07T02:19:32;13.17;;;11.97;;
79137;SDS011;68544;45.566;10.238;2023-05-07T02:21:58;13.57;;;12.23;;
79137;SDS011;68544;45.566;10.238;2023-05-07T02:24:23;16.60;;;12.30;;
79137;SDS011;68544;45.566;10.238;2023-05-07T02:26:48;12.60;;;11.40;;
79137;SDS011;68544;45.566;10.238;2023-05-07T02:29:14;13.17;;;11.77;;
79137;SDS011;68544;45.566;10.238;2023-05-07T02:31:39;12.68;;;11.45;;
79137;SDS011;68544;45.566;10.238;2023-05-07T02:34:04;14.20;;;12.77;;
79137;SDS011;68544;45.566;10.238;2023-05-07T02:36:30;13.17;;;12.07;;
79137;SDS011;68544;45.566;10.238;2023-05-07T02:38:55;13.90;;;12.70;;
79137;SDS011;68544;45.566;10.238;2023-05-07T02:41:20;14.77;;;13.27;;
79137;SDS011;68544;45.566;10.238;2023-05-07T02:43:46;15.60;;;14.07;;
79137;SDS011;68544;45.566;10.238;2023-05-07T02:46:12;14.48;;;13.18;;
79137;SDS011;68544;45.566;10.238;2023-05-07T02:48:37;14.43;;;13.23;;
79137;SDS011;68544;45.566;10.238;2023-05-07T02:51:03;15.38;;;13.90;;
79137;SDS011;68544;45.566;10.238;2023-05-07T02:53:29;15.52;;;14.15;;
79137;SDS011;68544;45.566;10.238;2023-05-07T02:55:58;14.45;;;12.95;;
79137;SDS011;68544;45.566;10.238;2023-05-07T02:58:24;13.45;;;11.20;;
79137;SDS011;68544;45.566;10.238;2023-05-07T03:00:49;12.85;;;11.65;;
79137;SDS011;68544;45.566;10.238;2023-05-07T03:03:15;9.68;;;8.02;;
79137;SDS011;68544;45.566;10.238;2023-05-07T03:05:41;6.15;;;5.05;;
79137;SDS011;68544;45.566;10.238;2023-05-07T03:08:06;6.07;;;4.10;;
79137;SDS011;68544;45.566;10.238;2023-05-07T03:10:32;5.47;;;3.60;;
79137;SDS011;68544;45.566;10.238;2023-05-07T03:12:58;3.83;;;3.28;;
79137;SDS011;68544;45.566;10.238;2023-05-07T03:15:23;6.20;;;3.00;;
79137;SDS011;68544;45.566;10.238;2023-05-07T03:17:48;5.47;;;3.30;;
79137;SDS011;68544;45.566;10.238;2023-05-07T03:20:14;3.50;;;2.57;;
79137;SDS011;68544;45.566;10.238;2023-05-07T03:22:39;4.28;;;3.28;;
79137;SDS011;68544;45.566;10.238;2023-05-07T03:25:05;7.15;;;3.30;;
79137;SDS011;68544;45.566;10.238;2023-05-07T03:29:56;5.07;;;3.50;;
79137;SDS011;68544;45.566;10.238;2023-05-07T03:32:21;5.27;;;2.77;;
79137;SDS011;68544;45.566;10.238;2023-05-07T03:34:47;3.87;;;2.50;;
79137;SDS011;68544;45.566;10.238;2023-05-07T03:37:12;6.93;;;2.93;;
79137;SDS011;68544;45.566;10.238;2023-05-07T03:39:37;4.43;;;2.27;;
79137;SDS011;68544;45.566;10.238;2023-05-07T03:42:03;4.17;;;2.30;;
79137;SDS011;68544;45.566;10.238;2023-05-07T03:44:28;4.73;;;2.70;;
79137;SDS011;68544;45.566;10.238;2023-05-07T03:46:54;4.87;;;2.47;;
79137;SDS011;68544;45.566;10.238;2023-05-07T03:51:45;3.40;;;2.50;;
79137;SDS011;68544;45.566;10.238;2023-05-07T03:54:10;3.70;;;2.07;;
79137;SDS011;68544;45.566;10.238;2023-05-07T03:56:36;2.90;;;2.40;;
79137;SDS011;68544;45.566;10.238;2023-05-07T03:59:01;3.80;;;2.30;;
79137;SDS011;68544;45.566;10.238;2023-05-07T04:03:52;3.97;;;2.20;;
79137;SDS011;68544;45.566;10.238;2023-05-07T04:06:18;4.00;;;2.47;;
79137;SDS011;68544;45.566;10.238;2023-05-07T04:08:43;2.80;;;2.10;;
79137;SDS011;68544;45.566;10.238;2023-05-07T04:11:08;2.90;;;2.00;;
79137;SDS011;68544;45.566;10.238;2023-05-07T04:13:34;2.50;;;1.87;;
79137;SDS011;68544;45.566;10.238;2023-05-07T04:16:00;3.72;;;2.08;;
79137;SDS011;68544;45.566;10.238;2023-05-07T04:18:27;4.22;;;1.95;;
79137;SDS011;68544;45.566;10.238;2023-05-07T04:20:52;7.03;;;2.40;;
79137;SDS011;68544;45.566;10.238;2023-05-07T04:23:18;2.33;;;1.98;;
79137;SDS011;68544;45.566;10.238;2023-05-07T04:25:43;3.47;;;2.37;;
79137;SDS011;68544;45.566;10.238;2023-05-07T04:28:08;3.07;;;2.23;;
79137;SDS011;68544;45.566;10.238;2023-05-07T04:30:34;3.57;;;2.30;;
79137;SDS011;68544;45.566;10.238;2023-05-07T04:32:59;2.83;;;2.07;;
79137;SDS011;68544;45.566;10.238;2023-05-07T04:35:25;2.83;;;2.30;;
79137;SDS011;68544;45.566;10.238;2023-05-07T04:37:50;3.90;;;2.40;;
79137;SDS011;68544;45.566;10.238;2023-05-07T04:40:15;3.00;;;2.42;;
79137;SDS011;68544;45.566;10.238;2023-05-07T04:42:41;4.38;;;2.65;;
79137;SDS011;68544;45.566;10.238;2023-05-07T04:45:06;4.97;;;3.60;;
79137;SDS011;68544;45.566;10.238;2023-05-07T04:47:33;5.85;;;4.10;;
79137;SDS011;68544;45.566;10.238;2023-05-07T04:49:59;6.90;;;3.60;;
79137;SDS011;68544;45.566;10.238;2023-05-07T04:52:24;5.50;;;3.40;;
79137;SDS011;68544;45.566;10.238;2023-05-07T04:54:50;5.22;;;3.50;;
79137;SDS011;68544;45.566;10.238;2023-05-07T04:57:15;4.80;;;3.33;;
79137;SDS011;68544;45.566;10.238;2023-05-07T04:59:42;4.63;;;2.67;;
79137;SDS011;68544;45.566;10.238;2023-05-07T05:02:08;2.80;;;2.40;;
79137;SDS011;68544;45.566;10.238;2023-05-07T05:04:33;2.37;;;2.17;;
79137;SDS011;68544;45.566;10.238;2023-05-07T05:06:58;3.40;;;1.90;;
79137;SDS011;68544;45.566;10.238;2023-05-07T05:09:23;3.70;;;1.70;;
79137;SDS011;68544;45.566;10.238;2023-05-07T05:11:49;3.57;;;2.10;;
79137;SDS011;68544;45.566;10.238;2023-05-07T05:14:14;4.78;;;1.90;;
79137;SDS011;68544;45.566;10.238;2023-05-07T05:16:39;3.78;;;1.75;;
79137;SDS011;68544;45.566;10.238;2023-05-07T05:19:05;3.63;;;1.67;;
79137;SDS011;68544;45.566;10.238;2023-05-07T05:21:30;5.20;;;1.70;;
79137;SDS011;68544;45.566;10.238;2023-05-07T05:23:56;3.65;;;1.73;;
79137;SDS011;68544;45.566;10.238;2023-05-07T05:26:22;8.05;;;2.10;;
79137;SDS011;68544;45.566;10.238;2023-05-07T05:28:47;4.03;;;1.87;;
79137;SDS011;68544;45.566;10.238;2023-05-07T05:31:12;4.60;;;1.70;;
79137;SDS011;68544;45.566;10.238;2023-05-07T05:36:05;4.15;;;1.98;;
79137;SDS011;68544;45.566;10.238;2023-05-07T05:38:30;4.22;;;2.15;;
79137;SDS011;68544;45.566;10.238;2023-05-07T05:40:56;4.18;;;1.85;;
79137;SDS011;68544;45.566;10.238;2023-05-07T05:43:21;2.70;;;2.07;;
79137;SDS011;68544;45.566;10.238;2023-05-07T05:45:46;4.53;;;2.10;;
79137;SDS011;68544;45.566;10.238;2023-05-07T05:48:11;3.60;;;2.17;;
79137;SDS011;68544;45.566;10.238;2023-05-07T05:50:37;2.93;;;2.30;;
79137;SDS011;68544;45.566;10.238;2023-05-07T05:53:02;3.15;;;2.00;;
79137;SDS011;68544;45.566;10.238;2023-05-07T05:55:28;5.70;;;2.17;;
79137;SDS011;68544;45.566;10.238;2023-05-07T05:57:53;4.20;;;1.90;;
79137;SDS011;68544;45.566;10.238;2023-05-07T06:00:18;3.87;;;1.90;;
79137;SDS011;68544;45.566;10.238;2023-05-07T06:02:47;3.47;;;1.73;;
79137;SDS011;68544;45.566;10.238;2023-05-07T06:05:12;3.83;;;2.00;;
79137;SDS011;68544;45.566;10.238;2023-05-07T06:07:37;2.53;;;1.80;;
79137;SDS011;68544;45.566;10.238;2023-05-07T06:10:03;3.40;;;2.00;;
79137;SDS011;68544;45.566;10.238;2023-05-07T06:12:29;2.03;;;1.70;;
79137;SDS011;68544;45.566;10.238;2023-05-07T06:14:54;2.83;;;1.90;;
79137;SDS011;68544;45.566;10.238;2023-05-07T06:17:19;3.53;;;2.00;;
79137;SDS011;68544;45.566;10.238;2023-05-07T06:19:45;4.30;;;2.30;;
79137;SDS011;68544;45.566;10.238;2023-05-07T06:22:10;3.07;;;1.80;;
79137;SDS011;68544;45.566;10.238;2023-05-07T06:24:35;4.50;;;2.28;;
79137;SDS011;68544;45.566;10.238;2023-05-07T06:27:01;4.10;;;2.13;;
79137;SDS011;68544;45.566;10.238;2023-05-07T06:29:26;5.00;;;2.10;;
79137;SDS011;68544;45.566;10.238;2023-05-07T06:31:54;4.22;;;2.28;;
79137;SDS011;68544;45.566;10.238;2023-05-07T06:34:20;3.38;;;2.15;;
79137;SDS011;68544;45.566;10.238;2023-05-07T06:36:45;4.20;;;2.05;;
79137;SDS011;68544;45.566;10.238;2023-05-07T06:39:10;2.97;;;2.17;;
79137;SDS011;68544;45.566;10.238;2023-05-07T06:41:36;6.40;;;2.25;;
79137;SDS011;68544;45.566;10.238;2023-05-07T06:44:01;3.08;;;2.30;;
79137;SDS011;68544;45.566;10.238;2023-05-07T06:46:28;5.30;;;1.98;;
79137;SDS011;68544;45.566;10.238;2023-05-07T06:51:19;4.18;;;2.30;;
79137;SDS011;68544;45.566;10.238;2023-05-07T06:53:44;2.58;;;1.77;;
79137;SDS011;68544;45.566;10.238;2023-05-07T06:56:09;6.00;;;2.20;;
79137;SDS011;68544;45.566;10.238;2023-05-07T06:58:35;4.03;;;2.30;;
79137;SDS011;68544;45.566;10.238;2023-05-07T07:01:00;4.30;;;1.90;;
79137;SDS011;68544;45.566;10.238;2023-05-07T07:03:25;2.90;;;2.08;;
79137;SDS011;68544;45.566;10.238;2023-05-07T07:05:52;3.65;;;2.17;;
79137;SDS011;68544;45.566;10.238;2023-05-07T07:08:18;2.10;;;1.90;;
79137;SDS011;68544;45.566;10.238;2023-05-07T07:10:43;4.40;;;2.10;;
79137;SDS011;68544;45.566;10.238;2023-05-07T07:13:08;4.35;;;2.28;;
79137;SDS011;68544;45.566;10.238;2023-05-07T07:15:34;7.93;;;2.70;;
79137;SDS011;68544;45.566;10.238;2023-05-07T07:17:59;3.13;;;1.88;;
79137;SDS011;68544;45.566;10.238;2023-05-07T07:22:50;3.53;;;1.83;;
79137;SDS011;68544;45.566;10.238;2023-05-07T07:25:15;3.40;;;2.00;;
79137;SDS011;68544;45.566;10.238;2023-05-07T07:27:41;4.10;;;2.17;;
79137;SDS011;68544;45.566;10.238;2023-05-07T07:30:06;2.72;;;1.80;;
79137;SDS011;68544;45.566;10.238;2023-05-07T07:32:32;3.03;;;2.00;;
79137;SDS011;68544;45.566;10.238;2023-05-07T07:34:58;2.92;;;1.90;;
79137;SDS011;68544;45.566;10.238;2023-05-07T07:37:23;2.83;;;1.90;;
79137;SDS011;68544;45.566;10.238;2023-05-07T07:39:50;2.65;;;1.65;;
79137;SDS011;68544;45.566;10.238;2023-05-07T07:44:41;4.30;;;1.50;;
79137;SDS011;68544;45.566;10.238;2023-05-07T07:49:31;3.73;;;2.00;;
79137;SDS011;68544;45.566;10.238;2023-05-07T07:54:24;2.83;;;1.80;;
79137;SDS011;68544;45.566;10.238;2023-05-07T07:59:14;3.10;;;1.50;;
79137;SDS011;68544;45.566;10.238;2023-05-07T08:01:43;3.08;;;2.05;;
79137;SDS011;68544;45.566;10.238;2023-05-07T08:06:34;4.80;;;2.20;;
79137;SDS011;68544;45.566;10.238;2023-05-07T08:08:59;4.95;;;2.55;;
79137;SDS011;68544;45.566;10.238;2023-05-07T08:11:25;3.90;;;2.75;;
79137;SDS011;68544;45.566;10.238;2023-05-07T08:13:50;3.28;;;2.65;;
79137;SDS011;68544;45.566;10.238;2023-05-07T08:16:16;5.32;;;2.72;;
79137;SDS011;68544;45.566;10.238;2023-05-07T08:18:41;2.78;;;2.30;;
79137;SDS011;68544;45.566;10.238;2023-05-07T08:21:06;4.95;;;2.90;;
79137;SDS011;68544;45.566;10.238;2023-05-07T08:23:32;3.95;;;2.80;;
79137;SDS011;68544;45.566;10.238;2023-05-07T08:25:59;4.10;;;3.20;;
79137;SDS011;68544;45.566;10.238;2023-05-07T08:28:24;4.55;;;3.40;;
79137;SDS011;68544;45.566;10.238;2023-05-07T08:30:50;5.20;;;3.50;;
79137;SDS011;68544;45.566;10.238;2023-05-07T08:33:15;4.70;;;3.58;;
79137;SDS011;68544;45.566;10.238;2023-05-07T08:35:40;4.65;;;3.40;;
79137;SDS011;68544;45.566;10.238;2023-05-07T08:38:06;4.82;;;3.50;;
79137;SDS011;68544;45.566;10.238;2023-05-07T08:40:32;4.07;;;3.67;;
79137;SDS011;68544;45.566;10.238;2023-05-07T08:43:07;5.20;;;4.50;;
79137;SDS011;68544;45.566;10.238;2023-05-07T08:45:33;5.63;;;5.13;;
79137;SDS011;68544;45.566;10.238;2023-05-07T08:48:01;7.15;;;5.32;;
79137;SDS011;68544;45.566;10.238;2023-05-07T08:50:30;8.38;;;4.65;;
79137;SDS011;68544;45.566;10.238;2023-05-07T08:52:55;6.30;;;5.10;;
79137;SDS011;68544;45.566;10.238;2023-05-07T08:55:22;9.75;;;7.10;;
79137;SDS011;68544;45.566;10.238;2023-05-07T08:57:48;12.25;;;8.00;;
79137;SDS011;68544;45.566;10.238;2023-05-07T09:00:15;11.88;;;9.43;;
79137;SDS011;68544;45.566;10.238;2023-05-07T09:02:40;11.05;;;9.48;;
79137;SDS011;68544;45.566;10.238;2023-05-07T09:05:06;9.18;;;8.38;;
79137;SDS011;68544;45.566;10.238;2023-05-07T09:07:32;9.27;;;8.38;;
79137;SDS011;68544;45.566;10.238;2023-05-07T09:09:57;9.60;;;8.75;;
79137;SDS011;68544;45.566;10.238;2023-05-07T09:12:22;9.80;;;8.80;;
79137;SDS011;68544;45.566;10.238;2023-05-07T09:14:48;9.27;;;8.38;;
79137;SDS011;68544;45.566;10.238;2023-05-07T09:17:17;13.18;;;9.45;;
79137;SDS011;68544;45.566;10.238;2023-05-07T09:19:43;10.95;;;9.95;;
79137;SDS011;68544;45.566;10.238;2023-05-07T09:22:10;14.82;;;10.45;;
79137;SDS011;68544;45.566;10.238;2023-05-07T09:24:36;9.52;;;8.60;;
79137;SDS011;68544;45.566;10.238;2023-05-07T09:27:03;11.55;;;10.32;;
79137;SDS011;68544;45.566;10.238;2023-05-07T09:29:32;11.55;;;10.50;;
79137;SDS011;68544;45.566;10.238;2023-05-07T09:32:06;11.20;;;10.20;;
79137;SDS011;68544;45.566;10.238;2023-05-07T09:34:33;10.30;;;9.40;;
79137;SDS011;68544;45.566;10.238;2023-05-07T09:36:59;10.70;;;9.52;;
79137;SDS011;68544;45.566;10.238;2023-05-07T09:39:38;9.32;;;8.52;;
79137;SDS011;68544;45.566;10.238;2023-05-07T09:42:04;10.13;;;9.27;;
79137;SDS011;68544;45.566;10.238;2023-05-07T09:44:31;10.25;;;9.23;;
79137;SDS011;68544;45.566;10.238;2023-05-07T09:46:57;9.13;;;8.38;;
79137;SDS011;68544;45.566;10.238;2023-05-07T09:49:25;11.38;;;10.32;;
79137;SDS011;68544;45.566;10.238;2023-05-07T09:51:57;10.70;;;9.73;;
79137;SDS011;68544;45.566;10.238;2023-05-07T09:54:25;8.60;;;7.88;;
79137;SDS011;68544;45.566;10.238;2023-05-07T09:56:53;9.30;;;8.50;;
79137;SDS011;68544;45.566;10.238;2023-05-07T09:59:20;10.60;;;9.70;;
79137;SDS011;68544;45.566;10.238;2023-05-07T10:01:46;10.05;;;9.25;;
79137;SDS011;68544;45.566;10.238;2023-05-07T10:04:12;10.27;;;9.27;;
79137;SDS011;68544;45.566;10.238;2023-05-07T10:06:38;10.02;;;9.23;;
79137;SDS011;68544;45.566;10.238;2023-05-07T10:09:04;10.57;;;9.75;;
79137;SDS011;68544;45.566;10.238;2023-05-07T10:11:31;10.07;;;9.18;;
79137;SDS011;68544;45.566;10.238;2023-05-07T10:13:58;9.20;;;8.40;;
79137;SDS011;68544;45.566;10.238;2023-05-07T10:16:23;9.70;;;8.80;;
79137;SDS011;68544;45.566;10.238;2023-05-07T10:18:50;10.40;;;9.40;;
79137;SDS011;68544;45.566;10.238;2023-05-07T10:21:17;9.57;;;8.60;;
79137;SDS011;68544;45.566;10.238;2023-05-07T10:23:50;9.60;;;8.90;;
79137;SDS011;68544;45.566;10.238;2023-05-07T10:26:22;9.55;;;8.65;;
79137;SDS011;68544;45.566;10.238;2023-05-07T10:28:50;8.82;;;7.72;;
79137;SDS011;68544;45.566;10.238;2023-05-07T10:31:30;8.88;;;8.00;;
79137;SDS011;68544;45.566;10.238;2023-05-07T10:33:58;10.13;;;9.18;;
79137;SDS011;68544;45.566;10.238;2023-05-07T10:36:26;9.77;;;8.63;;
79137;SDS011;68544;45.566;10.238;2023-05-07T10:38:52;9.75;;;8.75;;
79137;SDS011;68544;45.566;10.238;2023-05-07T10:41:18;8.35;;;7.65;;
79137;SDS011;68544;45.566;10.238;2023-05-07T10:43:46;10.38;;;9.57;;
79137;SDS011;68544;45.566;10.238;2023-05-07T10:46:18;9.52;;;8.63;;
79137;SDS011;68544;45.566;10.238;2023-05-07T10:51:28;8.73;;;8.02;;
79137;SDS011;68544;45.566;10.238;2023-05-07T10:56:35;8.82;;;8.13;;
79137;SDS011;68544;45.566;10.238;2023-05-07T10:59:29;8.68;;;7.97;;
79137;SDS011;68544;45.566;10.238;2023-05-07T11:02:00;8.13;;;7.53;;
79137;SDS011;68544;45.566;10.238;2023-05-07T11:04:31;8.50;;;7.80;;
79137;SDS011;68544;45.566;10.238;2023-05-07T11:07:44;7.28;;;6.57;;
79137;SDS011;68544;45.566;10.238;2023-05-07T11:09:55;9.77;;;8.80;;
79137;SDS011;68544;45.566;10.238;2023-05-07T11:15:01;8.35;;;7.70;;
79137;SDS011;68544;45.566;10.238;2023-05-07T11:17:29;9.48;;;8.68;;
79137;SDS011;68544;45.566;10.238;2023-05-07T11:19:57;9.63;;;8.82;;
79137;SDS011;68544;45.566;10.238;2023-05-07T11:24:57;9.75;;;8.85;;
79137;SDS011;68544;45.566;10.238;2023-05-07T11:27:25;10.63;;;9.73;;
79137;SDS011;68544;45.566;10.238;2023-05-07T11:29:50;10.68;;;9.50;;
79137;SDS011;68544;45.566;10.238;2023-05-07T11:32:22;10.98;;;9.55;;
79137;SDS011;68544;45.566;10.238;2023-05-07T11:34:55;8.60;;;7.88;;
79137;SDS011;68544;45.566;10.238;2023-05-07T11:37:22;8.90;;;8.10;;
79137;SDS011;68544;45.566;10.238;2023-05-07T11:39:48;8.68;;;7.88;;
79137;SDS011;68544;45.566;10.238;2023-05-07T11:44:51;9.50;;;8.57;;
79137;SDS011;68544;45.566;10.238;2023-05-07T11:47:17;8.90;;;8.10;;
79137;SDS011;68544;45.566;10.238;2023-05-07T11:49:43;9.65;;;8.75;;
79137;SDS011;68544;45.566;10.238;2023-05-07T11:52:11;11.20;;;10.15;;
79137;SDS011;68544;45.566;10.238;2023-05-07T11:54:38;9.25;;;7.68;;
79137;SDS011;68544;45.566;10.238;2023-05-07T11:57:03;8.57;;;7.63;;
79137;SDS011;68544;45.566;10.238;2023-05-07T11:59:28;7.80;;;6.95;;
79137;SDS011;68544;45.566;10.238;2023-05-07T12:01:57;9.07;;;8.02;;
79137;SDS011;68544;45.566;10.238;2023-05-07T12:04:24;7.97;;;6.45;;
79137;SDS011;68544;45.566;10.238;2023-05-07T12:06:49;6.45;;;5.95;;
79137;SDS011;68544;45.566;10.238;2023-05-07T12:09:19;8.10;;;7.40;;
79137;SDS011;68544;45.566;10.238;2023-05-07T12:11:45;7.47;;;6.78;;
79137;SDS011;68544;45.566;10.238;2023-05-07T12:14:11;7.68;;;6.88;;
79137;SDS011;68544;45.566;10.238;2023-05-07T12:16:36;7.38;;;6.07;;
79137;SDS011;68544;45.566;10.238;2023-05-07T12:19:04;7.43;;;6.72;;
79137;SDS011;68544;45.566;10.238;2023-05-07T12:21:31;7.15;;;6.50;;
79137;SDS011;68544;45.566;10.238;2023-05-07T12:23:56;6.55;;;6.05;;
79137;SDS011;68544;45.566;10.238;2023-05-07T12:26:22;7.22;;;6.15;;
79137;SDS011;68544;45.566;10.238;2023-05-07T12:28:49;6.63;;;6.03;;
79137;SDS011;68544;45.566;10.238;2023-05-07T12:31:14;6.25;;;5.65;;
79137;SDS011;68544;45.566;10.238;2023-05-07T12:33:41;7.28;;;5.57;;
79137;SDS011;68544;45.566;10.238;2023-05-07T12:36:07;6.60;;;6.00;;
79137;SDS011;68544;45.566;10.238;2023-05-07T12:38:37;7.70;;;6.25;;
79137;SDS011;68544;45.566;10.238;2023-05-07T12:41:03;6.63;;;5.90;;
79137;SDS011;68544;45.566;10.238;2023-05-07T12:43:29;8.55;;;6.13;;
79137;SDS011;68544;45.566;10.238;2023-05-07T12:45:57;6.47;;;5.88;;
79137;SDS011;68544;45.566;10.238;2023-05-07T12:48:24;6.25;;;5.63;;
79137;SDS011;68544;45.566;10.238;2023-05-07T12:50:55;5.82;;;5.22;;
79137;SDS011;68544;45.566;10.238;2023-05-07T12:53:22;5.85;;;5.35;;
79137;SDS011;68544;45.566;10.238;2023-05-07T12:55:50;6.05;;;5.45;;
79137;SDS011;68544;45.566;10.238;2023-05-07T12:58:21;6.75;;;5.57;;
79137;SDS011;68544;45.566;10.238;2023-05-07T13:00:51;6.95;;;6.15;;
79137;SDS011;68544;45.566;10.238;2023-05-07T13:03:36;6.93;;;6.30;;
79137;SDS011;68544;45.566;10.238;2023-05-07T13:06:03;7.30;;;6.63;;
79137;SDS011;68544;45.566;10.238;2023-05-07T13:08:37;5.50;;;5.00;;
79137;SDS011;68544;45.566;10.238;2023-05-07T13:11:13;7.68;;;5.35;;
79137;SDS011;68544;45.566;10.238;2023-05-07T13:13:39;5.53;;;5.10;;
79137;SDS011;68544;45.566;10.238;2023-05-07T13:16:06;5.75;;;4.88;;
79137;SDS011;68544;45.566;10.238;2023-05-07T13:18:33;7.47;;;4.38;;
79137;SDS011;68544;45.566;10.238;2023-05-07T13:20:59;6.65;;;4.13;;
79137;SDS011;68544;45.566;10.238;2023-05-07T13:23:26;4.47;;;3.90;;
79137;SDS011;68544;45.566;10.238;2023-05-07T13:25:52;5.15;;;4.32;;
79137;SDS011;68544;45.566;10.238;2023-05-07T13:28:21;5.10;;;4.60;;
79137;SDS011;68544;45.566;10.238;2023-05-07T13:30:46;5.00;;;3.83;;
79137;SDS011;68544;45.566;10.238;2023-05-07T13:33:12;4.85;;;3.60;;
79137;SDS011;68544;45.566;10.238;2023-05-07T13:35:37;5.05;;;3.53;;
79137;SDS011;68544;45.566;10.238;2023-05-07T13:38:03;5.93;;;3.80;;
79137;SDS011;68544;45.566;10.238;2023-05-07T13:40:29;5.45;;;4.15;;
79137;SDS011;68544;45.566;10.238;2023-05-07T13:42:56;6.95;;;4.53;;
79137;SDS011;68544;45.566;10.238;2023-05-07T13:45:23;6.80;;;4.40;;
79137;SDS011;68544;45.566;10.238;2023-05-07T13:47:50;6.97;;;5.38;;
79137;SDS011;68544;45.566;10.238;2023-05-07T13:50:16;5.78;;;4.00;;
79137;SDS011;68544;45.566;10.238;2023-05-07T13:52:42;4.60;;;3.83;;
79137;SDS011;68544;45.566;10.238;2023-05-07T13:55:17;6.38;;;4.95;;
79137;SDS011;68544;45.566;10.238;2023-05-07T13:57:43;6.35;;;4.78;;
79137;SDS011;68544;45.566;10.238;2023-05-07T14:00:08;6.18;;;4.88;;
79137;SDS011;68544;45.566;10.238;2023-05-07T14:02:34;5.18;;;4.28;;
79137;SDS011;68544;45.566;10.238;2023-05-07T14:05:00;5.75;;;4.80;;
79137;SDS011;68544;45.566;10.238;2023-05-07T14:07:25;4.50;;;3.83;;
79137;SDS011;68544;45.566;10.238;2023-05-07T14:09:51;5.82;;;4.03;;
79137;SDS011;68544;45.566;10.238;2023-05-07T14:12:16;6.28;;;3.83;;
79137;SDS011;68544;45.566;10.238;2023-05-07T14:14:41;4.53;;;4.05;;
79137;SDS011;68544;45.566;10.238;2023-05-07T14:17:06;4.45;;;3.90;;
79137;SDS011;68544;45.566;10.238;2023-05-07T14:19:33;8.57;;;4.78;;
79137;SDS011;68544;45.566;10.238;2023-05-07T14:21:58;5.75;;;4.72;;
79137;SDS011;68544;45.566;10.238;2023-05-07T14:24:23;4.60;;;4.20;;
79137;SDS011;68544;45.566;10.238;2023-05-07T14:26:49;4.30;;;3.78;;
79137;SDS011;68544;45.566;10.238;2023-05-07T14:29:14;5.28;;;4.18;;
79137;SDS011;68544;45.566;10.238;2023-05-07T14:31:43;4.38;;;3.97;;
79137;SDS011;68544;45.566;10.238;2023-05-07T14:34:09;5.60;;;5.00;;
79137;SDS011;68544;45.566;10.238;2023-05-07T14:36:34;7.85;;;4.32;;
79137;SDS011;68544;45.566;10.238;2023-05-07T14:38:59;4.72;;;4.28;;
79137;SDS011;68544;45.566;10.238;2023-05-07T14:41:25;5.85;;;3.70;;
79137;SDS011;68544;45.566;10.238;2023-05-07T14:43:50;4.32;;;3.47;;
79137;SDS011;68544;45.566;10.238;2023-05-07T14:46:19;4.72;;;4.05;;
79137;SDS011;68544;45.566;10.238;2023-05-07T14:48:44;4.78;;;3.90;;
79137;SDS011;68544;45.566;10.238;2023-05-07T14:51:13;6.00;;;4.80;;
79137;SDS011;68544;45.566;10.238;2023-05-07T14:53:40;6.15;;;4.68;;
79137;SDS011;68544;45.566;10.238;2023-05-07T14:56:06;4.93;;;4.43;;
79137;SDS011;68544;45.566;10.238;2023-05-07T14:58:32;5.65;;;4.95;;
79137;SDS011;68544;45.566;10.238;2023-05-07T15:00:58;6.85;;;4.95;;
79137;SDS011;68544;45.566;10.238;2023-05-07T15:03:24;5.50;;;4.78;;
79137;SDS011;68544;45.566;10.238;2023-05-07T15:05:50;6.43;;;4.85;;
79137;SDS011;68544;45.566;10.238;2023-05-07T15:08:18;8.48;;;5.25;;